Time;durP1;ratioP1;P1;durP2;ratioP2;P2;SDS_P1;SDS_P2;PMS_P1;PMS_P2;Temp;Humidity;BMP_temperature;BMP_pressure;BME280_temperature;BME280_humidity;BME280_pressure;Samples;Min_cycle;Max_cycle;Signal;HPM_P1;HPM_P2
2021/07/28 00:00:32;;;;;;;32.45;10.63;;;;;;;19.97;83.75;100359.97;1722187;83;21311;-77
2021/07/28 00:03:38;;;;;;;30.82;9.13;;;;;;;19.90;85.19;100355.05;1722334;83;21296;-75
2021/07/28 00:06:44;;;;;;;35.35;13.32;;;;;;;19.85;85.67;100356.30;1720629;83;21335;-91
2021/07/28 00:09:50;;;;;;;38.55;11.08;;;;;;;19.86;86.29;100348.30;1722481;83;21165;-91
2021/07/28 00:12:55;;;;;;;44.20;12.40;;;;;;;19.92;86.81;100347.34;1722539;83;21272;-90
2021/07/28 00:16:01;;;;;;;41.73;11.85;;;;;;;19.99;86.86;100339.75;1721962;83;21368;-90
2021/07/28 00:19:15;;;;;;;45.85;15.58;;;;;;;20.07;86.91;100339.96;1722384;83;21846;-76
2021/07/28 00:25:43;;;;;;;58.00;18.45;;;;;;;20.21;86.81;100337.81;1722098;83;21311;-91
2021/07/28 00:28:47;;;;;;;47.38;17.98;;;;;;;20.26;86.36;100336.01;1722291;83;21909;-91
2021/07/28 00:31:53;;;;;;;31.33;11.55;;;;;;;20.26;86.18;100331.00;1721381;83;21352;-77
2021/07/28 00:34:59;;;;;;;30.45;11.90;;;;;;;20.24;86.19;100329.86;1722205;83;21781;-91
2021/07/28 00:38:11;;;;;;;38.30;12.95;;;;;;;20.16;86.69;100328.81;1722349;83;21165;-77
2021/07/28 00:41:19;;;;;;;28.17;10.98;;;;;;;20.09;87.37;100331.71;1721704;83;22158;-91
2021/07/28 00:44:25;;;;;;;32.80;11.60;;;;;;;20.01;88.06;100322.33;1722325;83;21288;-77
2021/07/28 00:47:30;;;;;;;41.48;15.28;;;;;;;19.96;88.91;100316.65;1745679;82;21355;-77
2021/07/28 00:50:36;;;;;;;76.40;23.62;;;;;;;19.96;89.65;100318.58;1748676;82;21180;-78
2021/07/28 00:53:41;;;;;;;68.70;24.20;;;;;;;19.98;89.74;100317.24;1749135;82;21817;-91
2021/07/28 00:56:47;;;;;;;66.02;23.85;;;;;;;20.02;89.56;100319.85;1747903;82;21299;-78
2021/07/28 00:59:52;;;;;;;112.97;35.38;;;;;;;20.11;89.16;100324.52;1749161;82;21150;-90
2021/07/28 01:02:58;;;;;;;99.67;33.80;;;;;;;20.19;88.79;100319.17;1749222;82;21189;-77
2021/07/28 01:06:07;;;;;;;100.67;35.75;;;;;;;20.25;88.30;100311.27;1749031;82;21244;-77
2021/07/28 01:09:12;;;;;;;85.65;34.78;;;;;;;20.28;87.84;100313.02;1749124;82;21228;-90
2021/07/28 01:12:18;;;;;;;104.45;39.08;;;;;;;20.31;87.52;100306.13;1748921;82;21303;-77
2021/07/28 01:15:39;;;;;;;48.48;19.37;;;;;;;20.33;87.41;100305.36;1747594;82;21373;-76
2021/07/28 01:18:40;;;;;;;45.78;20.27;;;;;;;20.33;87.20;100301.19;1749182;82;21271;-89
2021/07/28 01:21:46;;;;;;;61.85;27.87;;;;;;;20.25;87.44;100309.88;1748893;82;21491;-76
2021/07/28 01:24:52;;;;;;;35.73;16.70;;;;;;;20.16;87.88;100304.66;1749145;82;21714;-90
2021/07/28 01:27:56;;;;;;;57.13;24.47;;;;;;;20.12;88.16;100306.77;1748094;82;21253;-90
2021/07/28 01:31:16;;;;;;;54.23;19.82;;;;;;;20.08;88.34;100306.94;1748530;82;21192;-77
2021/07/28 01:34:22;;;;;;;131.87;49.50;;;;;;;20.08;88.40;100312.49;1749157;82;21307;-90
2021/07/28 01:37:28;;;;;;;80.97;30.25;;;;;;;20.06;88.16;100308.58;1748025;82;21378;-77
2021/07/28 01:40:33;;;;;;;35.60;14.05;;;;;;;20.08;88.14;100313.88;1747752;82;21311;-77
2021/07/28 01:43:39;;;;;;;34.98;10.35;;;;;;;20.10;88.28;100311.73;1747581;82;21304;-77
2021/07/28 01:46:45;;;;;;;20.95;9.05;;;;;;;20.11;88.20;100318.97;1746854;82;21295;-90
2021/07/28 01:49:50;;;;;;;62.03;24.40;;;;;;;20.08;88.47;100316.11;1749189;82;21334;-89
2021/07/28 01:52:55;;;;;;;101.87;41.88;;;;;;;20.05;88.63;100308.28;1748904;82;21347;-77
2021/07/28 01:56:02;;;;;;;93.78;44.10;;;;;;;20.02;88.71;100310.13;1748370;82;21853;-77
2021/07/28 01:59:08;;;;;;;63.35;28.67;;;;;;;20.02;88.58;100308.74;1749070;82;21299;-77
2021/07/28 02:02:12;;;;;;;73.85;32.85;;;;;;;19.99;88.55;100316.15;1749221;82;21347;-89
2021/07/28 02:05:19;;;;;;;53.52;18.90;;;;;;;19.98;88.83;100321.41;1749115;82;21318;-89
2021/07/28 02:08:24;;;;;;;102.92;36.08;;;;;;;19.88;89.25;100322.53;1749096;82;21884;-83
2021/07/28 02:11:29;;;;;;;76.92;31.00;;;;;;;19.74;90.10;100321.88;1749161;82;21204;-77
2021/07/28 02:14:35;;;;;;;71.07;27.35;;;;;;;19.70;90.98;100318.43;1749271;82;21762;-77
2021/07/28 02:17:39;;;;;;;367.80;120.47;;;;;;;19.72;91.38;100321.83;1748676;82;21319;-77
2021/07/28 02:20:45;;;;;;;720.17;327.50;;;;;;;19.74;91.51;100310.78;1748671;82;21311;-89
2021/07/28 02:23:51;;;;;;;816.62;398.05;;;;;;;19.78;91.26;100311.16;1748957;82;21287;-89
2021/07/28 02:26:57;;;;;;;159.45;56.28;;;;;;;19.84;91.13;100318.53;1748075;82;21323;-76
2021/07/28 02:30:04;;;;;;;168.90;58.98;;;;;;;19.88;90.94;100318.37;1747891;82;21324;-76
2021/07/28 02:33:09;;;;;;;124.15;46.68;;;;;;;19.95;90.49;100322.41;1749219;82;21196;-91
2021/07/28 02:36:14;;;;;;;445.62;180.07;;;;;;;20.03;90.10;100317.38;1748577;82;21291;-76
2021/07/28 02:39:20;;;;;;;261.73;98.03;;;;;;;20.20;89.92;100318.08;1748348;82;21318;-88
2021/07/28 02:42:25;;;;;;;78.07;35.35;;;;;;;20.41;89.09;100320.26;1749343;82;21723;-89
2021/07/28 02:45:33;;;;;;;87.47;33.88;;;;;;;20.62;87.58;100322.48;1748619;82;21315;-89
2021/07/28 02:48:32;;;;;;;48.63;21.60;;;;;;;20.82;86.31;100314.30;1736084;82;21328;-76
2021/07/28 02:51:37;;;;;;;54.93;19.20;;;;;;;21.03;85.56;100325.32;1721442;83;21311;-77
2021/07/28 02:54:43;;;;;;;124.90;48.98;;;;;;;21.26;84.89;100316.08;1722320;83;21165;-77
2021/07/28 02:57:49;;;;;;;96.42;37.55;;;;;;;21.51;84.16;100322.76;1722323;83;21305;-77
2021/07/28 03:00:54;;;;;;;57.78;22.50;;;;;;;21.79;82.98;100317.73;1721932;83;21833;-75
2021/07/28 03:04:00;;;;;;;18.55;7.60;;;;;;;22.02;81.62;100309.77;1722540;83;21275;-75
2021/07/28 03:07:05;;;;;;;20.40;5.95;;;;;;;22.15;81.39;100313.10;1722265;83;21805;-75
2021/07/28 03:10:11;;;;;;;46.15;16.15;;;;;;;22.19;81.72;100310.66;1722601;83;21904;-75
2021/07/28 03:13:17;;;;;;;35.78;14.50;;;;;;;22.24;81.98;100311.30;1722539;83;21205;-87
2021/07/28 03:16:22;;;;;;;29.45;7.70;;;;;;;22.36;82.02;100312.91;1722421;83;21829;-75
2021/07/28 03:19:27;;;;;;;21.00;6.30;;;;;;;22.62;81.58;100316.92;1722605;83;21316;-88
2021/07/28 03:22:32;;;;;;;19.00;5.87;;;;;;;22.81;80.92;100322.21;1722621;83;21323;-75
2021/07/28 03:25:37;;;;;;;25.05;7.67;;;;;;;22.93;80.75;100328.56;1722728;83;21201;-88
2021/07/28 03:28:43;;;;;;;23.12;7.75;;;;;;;23.10;80.53;100326.58;1722161;83;21201;-89
2021/07/28 03:31:50;;;;;;;16.35;6.28;;;;;;;23.30;79.92;100322.37;1721227;83;21382;-90
2021/07/28 03:34:55;;;;;;;19.37;5.28;;;;;;;23.53;79.08;100326.28;1721013;83;21283;-77
2021/07/28 03:38:00;;;;;;;26.75;6.87;;;;;;;23.71;78.23;100330.15;1721307;83;21264;-91
2021/07/28 03:41:06;;;;;;;16.57;5.65;;;;;;;23.94;77.63;100321.14;1722052;83;21307;-81
2021/07/28 03:44:12;;;;;;;19.27;5.37;;;;;;;24.23;76.71;100329.53;1722507;83;21173;-88
2021/07/28 03:47:18;;;;;;;26.57;5.55;;;;;;;24.40;75.51;100326.61;1722362;83;21825;-77
2021/07/28 03:50:24;;;;;;;15.03;5.20;;;;;;;24.48;75.08;100332.28;1740178;82;21786;-90
2021/07/28 03:53:29;;;;;;;15.55;5.50;;;;;;;24.64;74.45;100325.67;1748760;82;21355;-76
2021/07/28 03:56:35;;;;;;;14.65;5.50;;;;;;;24.79;73.63;100327.72;1748054;82;21240;-89
2021/07/28 03:59:40;;;;;;;17.80;5.20;;;;;;;24.82;73.40;100321.60;1749318;82;21204;-79
2021/07/28 04:02:45;;;;;;;16.50;5.12;;;;;;;24.84;73.11;100325.52;1749094;82;21881;-85
2021/07/28 04:05:51;;;;;;;17.45;5.75;;;;;;;24.83;72.97;100324.67;1749290;82;21886;-77
2021/07/28 04:08:58;;;;;;;14.40;5.55;;;;;;;24.87;73.02;100323.03;1749214;82;21300;-90
2021/07/28 04:12:02;;;;;;;13.93;5.03;;;;;;;24.96;72.72;100320.00;1748084;82;21205;-89
2021/07/28 04:15:08;;;;;;;17.85;5.58;;;;;;;25.07;72.44;100320.05;1749027;82;21279;-90
2021/07/28 04:18:13;;;;;;;15.78;5.55;;;;;;;25.13;72.32;100321.81;1749253;82;21335;-90
2021/07/28 04:21:19;;;;;;;12.93;5.78;;;;;;;25.17;72.19;100325.73;1747849;82;21244;-78
2021/07/28 04:24:25;;;;;;;15.03;6.67;;;;;;;25.20;72.31;100320.44;1747871;82;21209;-90
2021/07/28 04:27:31;;;;;;;17.67;6.53;;;;;;;25.27;72.33;100313.77;1747775;82;21212;-88
2021/07/28 04:30:37;;;;;;;18.00;6.72;;;;;;;25.36;72.29;100320.49;1748187;82;21185;-89
2021/07/28 04:33:42;;;;;;;17.57;6.58;;;;;;;25.47;71.97;100313.27;1748990;82;21165;-89
2021/07/28 04:36:47;;;;;;;16.93;6.22;;;;;;;25.60;71.77;100309.12;1748166;82;21209;-76
2021/07/28 04:39:53;;;;;;;13.30;6.10;;;;;;;25.72;71.13;100313.05;1748428;82;21358;-90
2021/07/28 04:42:58;;;;;;;15.25;5.80;;;;;;;25.90;70.47;100313.12;1747585;82;21339;-89
2021/07/28 04:46:08;;;;;;;22.40;5.37;;;;;;;26.14;69.36;100305.86;1748677;82;21204;-76
2021/07/28 04:49:14;;;;;;;12.43;5.35;;;;;;;26.34;68.37;100298.56;1749202;82;21320;-89
2021/07/28 04:52:24;;;;;;;15.60;5.30;;;;;;;26.56;67.05;100301.95;1747841;82;21240;-76
2021/07/28 04:55:27;;;;;;;19.05;5.50;;;;;;;26.78;65.44;100299.40;1748342;82;21228;-76
2021/07/28 04:58:32;;;;;;;11.18;5.33;;;;;;;27.01;63.94;100304.39;1749065;82;21881;-76
2021/07/28 05:01:38;;;;;;;15.68;5.00;;;;;;;27.28;62.89;100301.77;1748233;82;21319;-90
2021/07/28 05:04:45;;;;;;;16.87;5.03;;;;;;;27.47;61.44;100298.59;1749335;82;21594;-77
2021/07/28 05:07:50;;;;;;;12.98;4.60;;;;;;;27.60;60.52;100297.95;1749319;82;21283;-79
2021/07/28 05:10:56;;;;;;;16.70;4.55;;;;;;;27.71;60.26;100288.39;1748127;82;21718;-90
2021/07/28 05:14:01;;;;;;;15.95;5.25;;;;;;;27.87;59.58;100292.50;1747702;82;21797;-77
2021/07/28 05:17:07;;;;;;;14.83;5.08;;;;;;;28.04;58.63;100287.29;1747711;82;21782;-90
2021/07/28 05:20:14;;;;;;;10.95;4.65;;;;;;;28.15;58.07;100288.07;1748657;82;21322;-91
2021/07/28 05:23:20;;;;;;;19.67;4.47;;;;;;;28.22;57.44;100285.74;1749384;82;21291;-91
2021/07/28 05:26:26;;;;;;;19.07;5.60;;;;;;;28.23;56.71;100278.44;1717548;83;21295;-88
2021/07/28 05:29:32;;;;;;;16.42;4.60;;;;;;;28.26;56.02;100280.64;1718552;83;21291;-74
2021/07/28 05:32:37;;;;;;;13.62;5.20;;;;;;;28.24;55.98;100280.68;1700762;84;21145;-90
2021/07/28 05:35:47;;;;;;;12.30;5.10;;;;;;;28.26;55.80;100277.83;1727871;82;21369;-90
2021/07/28 05:38:49;;;;;;;13.93;5.65;;;;;;;28.29;56.06;100276.41;1719891;83;21174;-77
2021/07/28 05:41:57;;;;;;;16.25;5.30;;;;;;;28.44;56.42;100278.27;1702541;83;21309;-77
2021/07/28 05:45:02;;;;;;;14.00;5.97;;;;;;;28.62;55.06;100264.03;1701548;83;21289;-89
2021/07/28 05:48:08;;;;;;;11.93;5.30;;;;;;;28.81;54.79;100264.11;1715793;81;21250;-77
2021/07/28 05:51:13;;;;;;;13.18;5.20;;;;;;;29.01;54.64;100270.93;1713049;82;21584;-77
2021/07/28 05:54:19;;;;;;;16.17;5.47;;;;;;;29.03;54.63;100263.87;1719390;82;21347;-90
2021/07/28 05:57:27;;;;;;;15.00;5.22;;;;;;;29.03;54.63;100263.87;1732432;82;21292;-77
2021/07/28 06:00:34;;;;;;;15.48;5.20;;;;;;;29.05;54.47;100263.56;1731445;82;21205;-77
2021/07/28 06:03:39;;;;;;;11.73;5.20;;;;;;;29.17;53.85;100263.98;1735639;82;21288;-89
2021/07/28 06:06:45;;;;;;;22.52;5.92;;;;;;;29.25;53.64;100263.87;1732248;82;21823;-90
2021/07/28 06:09:51;;;;;;;10.38;4.62;;;;;;;29.25;53.48;100259.64;1709517;83;21858;-90
2021/07/28 06:12:56;;;;;;;16.23;4.90;;;;;;;29.28;53.53;100254.25;1709850;83;21150;-90
2021/07/28 06:16:01;;;;;;;9.95;4.87;;;;;;;29.28;53.09;100258.48;1695058;83;21275;-90
2021/07/28 06:19:06;;;;;;;15.72;5.05;;;;;;;29.33;52.83;100243.48;1693511;83;21774;-89
2021/07/28 06:22:12;;;;;;;13.18;4.58;;;;;;;29.47;52.19;100256.25;1693759;83;21898;-89
2021/07/28 06:25:18;;;;;;;13.13;5.47;;;;;;;29.47;52.19;100256.25;1702690;83;21375;-91
2021/07/28 06:28:26;;;;;;;14.30;5.10;;;;;;;29.62;52.22;100251.00;1724011;82;21291;-87
2021/07/28 06:31:32;;;;;;;15.70;4.70;;;;;;;29.67;52.55;100252.33;1723694;81;21239;-76
2021/07/28 06:34:40;;;;;;;11.08;4.15;;;;;;;29.76;52.01;100251.33;1715158;82;21804;-77
2021/07/28 06:37:47;;;;;;;13.50;5.22;;;;;;;29.92;51.64;100252.48;1701963;83;21256;-76
2021/07/28 06:40:52;;;;;;;16.30;4.53;;;;;;;30.03;51.07;100255.42;1703107;83;21185;-76
2021/07/28 06:43:58;;;;;;;9.80;4.42;;;;;;;30.16;50.48;100250.45;1704214;83;21821;-92
2021/07/28 06:47:03;;;;;;;17.10;3.77;;;;;;;30.32;49.71;100249.59;1690734;83;21285;-75
2021/07/28 06:50:09;;;;;;;12.90;3.80;;;;;;;30.44;50.30;100244.84;1702018;83;21178;-91
2021/07/28 06:53:14;;;;;;;11.63;3.98;;;;;;;30.51;49.29;100243.31;1720454;81;21318;-91
2021/07/28 06:56:21;;;;;;;9.60;3.67;;;;;;;30.52;48.83;100244.98;1734838;82;21295;-90
2021/07/28 06:59:26;;;;;;;13.72;4.58;;;;;;;30.53;49.45;100237.34;1727716;82;21256;-90
2021/07/28 07:02:33;;;;;;;18.75;4.97;;;;;;;30.56;49.15;100233.91;1718707;82;21834;-90
2021/07/28 07:05:38;;;;;;;11.60;3.60;;;;;;;30.65;49.39;100227.80;1739087;82;21338;-89
2021/07/28 07:08:45;;;;;;;20.48;4.55;;;;;;;30.73;47.79;100220.06;1732622;82;21323;-90
2021/07/28 07:11:53;;;;;;;13.95;4.53;;;;;;;30.73;47.38;100219.23;1742018;82;21339;-89
2021/07/28 07:14:58;;;;;;;31.75;5.28;;;;;;;30.67;47.02;100225.49;1722734;82;21323;-90
2021/07/28 07:18:04;;;;;;;17.57;5.05;;;;;;;30.64;46.71;100224.73;1709629;83;21117;-90
2021/07/28 07:21:10;;;;;;;24.75;4.92;;;;;;;30.66;46.89;100217.34;1709692;82;21216;-90
2021/07/28 07:24:17;;;;;;;23.00;4.35;;;;;;;30.73;47.55;100222.88;1726204;80;21210;-90
2021/07/28 07:27:23;;;;;;;20.92;4.42;;;;;;;30.94;47.28;100223.87;1687529;84;21137;-89
2021/07/28 07:30:34;;;;;;;26.05;4.87;;;;;;;31.08;47.28;100220.45;1674512;84;21819;-89
2021/07/28 07:33:40;;;;;;;23.75;5.05;;;;;;;31.21;47.14;100215.95;1683808;84;21294;-92
2021/07/28 07:36:46;;;;;;;30.60;5.75;;;;;;;31.41;46.20;100223.16;1672854;84;21649;-90
2021/07/28 07:40:05;;;;;;;28.35;6.00;;;;;;;31.56;45.89;100231.27;1687674;84;21842;-90
2021/07/28 07:43:15;;;;;;;23.50;5.30;;;;;;;31.66;43.71;100229.62;1689401;84;21136;-90
2021/07/28 07:46:19;;;;;;;21.80;5.05;;;;;;;31.77;43.72;100231.64;1682466;84;21244;-90
2021/07/28 07:49:25;;;;;;;16.82;5.45;;;;;;;31.80;44.19;100230.98;1686691;84;21227;-90
2021/07/28 07:52:30;;;;;;;25.08;5.10;;;;;;;31.85;44.30;100236.55;1683671;83;21277;-90
2021/07/28 07:55:36;;;;;;;22.45;5.10;;;;;;;31.94;44.47;100233.79;1689190;84;21325;-90
2021/07/28 07:58:43;;;;;;;20.72;5.83;;;;;;;31.97;44.21;100233.98;1688330;84;21493;-90
2021/07/28 08:01:48;;;;;;;20.88;5.15;;;;;;;32.03;43.22;100234.69;1686830;84;21922;-91
2021/07/28 08:04:58;;;;;;;30.43;5.05;;;;;;;32.06;43.81;100234.89;1689360;84;21322;-90
2021/07/28 08:08:02;;;;;;;21.05;5.47;;;;;;;32.13;43.48;100230.18;1684469;84;21204;-91
2021/07/28 08:11:08;;;;;;;19.27;5.50;;;;;;;32.27;42.26;100232.35;1679838;84;21308;-90
2021/07/28 08:14:13;;;;;;;26.82;5.47;;;;;;;32.41;41.85;100227.23;1676666;84;21720;-76
2021/07/28 08:17:20;;;;;;;30.75;6.00;;;;;;;32.48;41.83;100233.27;1685927;84;21174;-90
2021/07/28 08:20:26;;;;;;;22.73;5.45;;;;;;;32.51;41.29;100228.36;1681229;84;21213;-87
2021/07/28 08:23:31;;;;;;;23.20;5.45;;;;;;;32.54;41.05;100234.21;1674218;84;21318;-74
2021/07/28 08:26:36;;;;;;;27.20;5.78;;;;;;;32.64;41.52;100233.67;1669123;85;21299;-75
2021/07/28 08:29:42;;;;;;;31.45;5.47;;;;;;;32.84;41.12;100233.09;1722840;83;21257;-76
2021/07/28 08:32:48;;;;;;;21.65;5.28;;;;;;;33.02;40.09;100234.85;1716209;83;21180;-89
2021/07/28 08:35:54;;;;;;;18.77;5.60;;;;;;;33.16;38.98;100232.48;1718497;83;21279;-77
2021/07/28 08:39:01;;;;;;;18.30;4.35;;;;;;;33.24;38.88;100231.09;1719717;83;21270;-89
2021/07/28 08:42:10;;;;;;;21.68;4.90;;;;;;;33.33;38.48;100234.78;1709629;83;21279;-90
2021/07/28 08:45:16;;;;;;;15.13;4.58;;;;;;;33.35;38.11;100237.86;1710832;83;21717;-90
2021/07/28 08:48:24;;;;;;;17.23;4.67;;;;;;;33.35;37.87;100237.27;1712694;83;21797;-89
2021/07/28 08:51:36;;;;;;;15.55;4.50;;;;;;;33.35;38.01;100233.02;1717099;83;21157;-77
2021/07/28 08:54:42;;;;;;;16.35;3.52;;;;;;;33.38;38.06;100222.45;1713568;83;21967;-76
2021/07/28 08:57:47;;;;;;;8.35;4.08;;;;;;;33.37;37.29;100227.04;1707041;83;21251;-77
2021/07/28 09:00:53;;;;;;;10.00;3.77;;;;;;;33.44;37.24;100233.07;1725091;81;21838;-89
2021/07/28 09:04:01;;;;;;;15.65;4.55;;;;;;;33.49;36.73;100229.48;1721448;83;21287;-90
2021/07/28 09:07:07;;;;;;;18.98;3.67;;;;;;;33.50;37.00;100220.39;1726936;83;21797;-90
2021/07/28 09:10:13;;;;;;;15.43;4.55;;;;;;;33.55;36.78;100218.25;1703387;83;21253;-90
2021/07/28 09:13:19;;;;;;;16.67;4.25;;;;;;;33.63;37.27;100216.57;1662296;86;21234;-89
2021/07/28 09:16:24;;;;;;;21.45;5.05;;;;;;;33.79;36.74;100207.83;1670404;86;21196;-78
2021/07/28 09:19:50;;;;;;;18.27;4.62;;;;;;;33.80;36.12;100205.82;1691068;85;21391;-89
2021/07/28 09:22:57;;;;;;;22.62;4.17;;;;;;;33.68;35.94;100209.31;1722748;83;21252;-77
2021/07/28 09:26:08;;;;;;;15.93;4.35;;;;;;;33.71;35.82;100198.73;1716359;83;21622;-76
2021/07/28 09:29:18;;;;;;;9.38;3.62;;;;;;;33.68;34.93;100188.05;1698415;83;21291;-76
2021/07/28 09:32:24;;;;;;;24.95;4.55;;;;;;;33.66;35.58;100179.05;1715865;83;21825;-90
2021/07/28 09:36:09;;;;;;;13.05;4.20;;;;;;;33.67;35.56;100175.04;1711761;83;21181;-75
2021/07/28 09:39:14;;;;;;;10.18;3.70;;;;;;;33.72;35.41;100178.29;1711578;83;21339;-89
2021/07/28 09:42:24;;;;;;;16.97;3.67;;;;;;;33.63;34.92;100175.45;1710787;83;21259;-81
2021/07/28 09:45:35;;;;;;;19.42;3.72;;;;;;;33.52;35.75;100170.71;1718345;83;21208;-76
2021/07/28 09:48:45;;;;;;;23.02;4.58;;;;;;;33.52;35.80;100168.46;1711117;83;21267;-76
2021/07/28 09:51:51;;;;;;;22.42;4.83;;;;;;;33.45;36.79;100166.70;1700937;83;21302;-89
2021/07/28 09:55:00;;;;;;;8.88;3.25;;;;;;;33.39;37.05;100170.84;1718222;83;21192;-81
2021/07/28 09:58:08;;;;;;;10.25;3.67;;;;;;;33.38;36.72;100162.09;1712741;83;21149;-89
2021/07/28 10:01:13;;;;;;;14.33;3.90;;;;;;;33.41;36.34;100167.94;1676892;85;21284;-88
2021/07/28 10:04:22;;;;;;;10.08;3.80;;;;;;;33.43;36.35;100169.88;1652464;86;21203;-89
2021/07/28 10:07:29;;;;;;;13.28;3.90;;;;;;;33.52;35.96;100168.46;1674414;85;21237;-88
2021/07/28 10:10:34;;;;;;;9.25;3.37;;;;;;;33.69;33.56;100161.94;1645138;86;21315;-77
2021/07/28 10:13:39;;;;;;;12.30;4.58;;;;;;;33.84;32.76;100169.95;1677410;85;21161;-89
2021/07/28 10:16:45;;;;;;;18.02;5.40;;;;;;;34.00;33.44;100167.44;1726920;83;21303;-88
2021/07/28 10:19:52;;;;;;;14.28;4.42;;;;;;;34.14;33.42;100163.82;1728370;83;21261;-88
2021/07/28 10:22:59;;;;;;;11.78;4.12;;;;;;;34.25;31.56;100161.44;1712990;83;21350;-77
2021/07/28 10:26:04;;;;;;;11.10;3.45;;;;;;;34.34;30.39;100158.82;1667100;85;21845;-89
2021/07/28 10:29:10;;;;;;;10.98;3.80;;;;;;;34.38;30.64;100154.73;1715252;83;21283;-78
2021/07/28 10:32:16;;;;;;;17.62;4.22;;;;;;;34.38;31.15;100159.57;1713390;83;21287;-90
2021/07/28 10:35:33;;;;;;;19.45;5.05;;;;;;;34.26;31.93;100158.28;1690477;85;21746;-90
2021/07/28 10:38:38;;;;;;;21.05;5.17;;;;;;;34.03;32.90;100152.00;1698575;84;21312;-88
2021/07/28 10:41:48;;;;;;;16.65;4.53;;;;;;;33.97;33.08;100147.69;1679880;83;21804;-77
2021/07/28 10:45:09;;;;;;;14.73;4.10;;;;;;;34.12;33.40;100151.98;1715470;83;21800;-77
2021/07/28 10:48:15;;;;;;;21.23;4.85;;;;;;;34.24;32.40;100147.84;1703230;83;21920;-77
2021/07/28 10:51:56;;;;;;;14.65;4.67;;;;;;;34.23;32.48;100143.94;1720674;83;21324;-89
2021/07/28 10:55:06;;;;;;;25.00;5.60;;;;;;;34.13;33.21;100150.81;1693610;84;21403;-77
2021/07/28 10:58:19;;;;;;;21.62;5.55;;;;;;;34.01;33.11;100140.73;1697134;84;21308;-89
2021/07/28 11:01:24;;;;;;;19.10;5.20;;;;;;;33.96;31.33;100137.48;1712015;83;21773;-89
2021/07/28 11:04:33;;;;;;;17.90;4.53;;;;;;;33.97;31.05;100125.55;1715701;83;22154;-77
2021/07/28 11:08:18;;;;;;;32.23;5.97;;;;;;;34.08;32.33;100130.54;1716401;83;21153;-85
2021/07/28 11:11:34;;;;;;;21.73;5.65;;;;;;;34.23;31.67;100129.16;1674766;85;21652;-74
2021/07/28 11:14:41;;;;;;;29.80;6.40;;;;;;;34.26;31.82;100119.97;1732017;81;21216;-89
2021/07/28 11:17:46;;;;;;;21.33;5.60;;;;;;;34.18;31.71;100127.92;1698129;83;21184;-88
2021/07/28 11:20:52;;;;;;;27.32;5.62;;;;;;;34.03;31.81;100124.22;1719329;83;21385;-89
2021/07/28 11:24:03;;;;;;;23.55;6.12;;;;;;;33.80;32.17;100124.40;1717232;83;21221;-84
2021/07/28 11:27:10;;;;;;;25.88;5.47;;;;;;;33.65;32.53;100118.43;1715903;83;21299;-77
2021/07/28 11:30:20;;;;;;;20.15;6.35;;;;;;;33.57;32.69;100115.25;1700381;82;21852;-89
2021/07/28 11:33:26;;;;;;;21.77;5.25;;;;;;;33.52;32.95;100109.76;1697711;83;21276;-76
2021/07/28 11:36:33;;;;;;;25.97;5.60;;;;;;;33.68;32.51;100102.97;1714717;83;21222;-77
2021/07/28 11:39:39;;;;;;;17.77;5.58;;;;;;;33.91;32.13;100100.75;1727954;82;21295;-89
2021/07/28 11:42:45;;;;;;;18.02;4.78;;;;;;;34.09;31.89;100095.91;1715316;83;21802;-76
2021/07/28 11:45:51;;;;;;;26.93;4.60;;;;;;;34.25;31.53;100096.16;1715725;83;21312;-76
2021/07/28 11:48:59;;;;;;;10.70;4.35;;;;;;;34.32;30.95;100097.31;1717055;83;21282;-88
2021/07/28 11:52:06;;;;;;;10.78;3.62;;;;;;;34.38;31.31;100096.53;1715704;83;21301;-89
2021/07/28 11:55:10;;;;;;;22.82;4.30;;;;;;;34.52;31.00;100099.17;1717150;83;21329;-88
2021/07/28 11:58:01;;;;;;;10.78;4.37;;;;;;;34.62;30.81;100097.94;1716367;83;21285;-89
2021/07/28 12:01:28;;;;;;;21.35;4.75;;;;;;;34.67;30.96;100103.42;1715475;83;21335;-77
2021/07/28 12:04:37;;;;;;;22.35;4.53;;;;;;;34.64;30.54;100095.61;1717612;83;21206;-89
2021/07/28 12:07:43;;;;;;;19.73;6.12;;;;;;;34.64;31.04;100090.76;1717640;83;21190;-77
2021/07/28 12:10:49;;;;;;;15.70;4.53;;;;;;;34.60;31.89;100086.94;1716810;83;21371;-90
2021/07/28 12:13:55;;;;;;;23.62;5.45;;;;;;;34.49;31.89;100080.83;1715429;83;21980;-76
2021/07/28 12:17:08;;;;;;;20.88;5.50;;;;;;;34.22;32.24;100084.92;1686199;83;21353;-77
2021/07/28 12:20:14;;;;;;;20.55;5.80;;;;;;;34.05;32.72;100080.13;1663631;83;21293;-90
2021/07/28 12:23:19;;;;;;;13.25;6.05;;;;;;;33.95;32.69;100085.35;1671684;84;21197;-77
2021/07/28 12:26:24;;;;;;;17.23;5.80;;;;;;;33.85;33.08;100085.09;1656878;85;21858;-89
2021/07/28 12:29:47;;;;;;;16.37;5.12;;;;;;;33.82;33.21;100081.50;1678940;85;21140;-77
2021/07/28 12:32:52;;;;;;;23.38;6.70;;;;;;;33.76;33.50;100077.19;1680455;85;21835;-89
2021/07/28 12:36:04;;;;;;;17.17;5.20;;;;;;;33.67;33.90;100073.55;1683310;83;21163;-88
2021/07/28 12:39:09;;;;;;;19.67;5.40;;;;;;;33.65;33.94;100071.05;1686674;83;21160;-76
2021/07/28 12:42:16;;;;;;;20.88;5.20;;;;;;;33.74;34.35;100066.20;1685348;83;21867;-89
2021/07/28 12:45:21;;;;;;;22.27;5.60;;;;;;;33.75;34.12;100067.02;1688796;83;21330;-77
2021/07/28 12:48:27;;;;;;;22.80;5.08;;;;;;;33.65;33.48;100062.55;1675954;85;21206;-89
2021/07/28 12:51:32;;;;;;;21.17;5.83;;;;;;;33.56;33.00;100058.89;1680737;83;21180;-89
2021/07/28 12:54:37;;;;;;;16.50;4.33;;;;;;;33.41;33.49;100053.72;1678482;83;21175;-77
2021/07/28 12:57:44;;;;;;;18.95;5.40;;;;;;;33.24;33.92;100049.72;1689360;83;21164;-89
2021/07/28 13:00:50;;;;;;;21.35;5.58;;;;;;;33.10;33.77;100040.56;1685196;83;21294;-89
2021/07/28 13:03:57;;;;;;;29.63;6.03;;;;;;;32.96;34.00;100038.48;1671598;85;21203;-90
2021/07/28 13:07:16;;;;;;;18.32;5.45;;;;;;;32.84;34.15;100023.52;1695019;84;21293;-89
2021/07/28 13:10:10;;;;;;;22.05;5.37;;;;;;;32.71;34.49;100028.19;1687833;83;22055;-88
2021/07/28 13:13:15;;;;;;;22.17;5.92;;;;;;;32.60;35.00;100026.81;1681707;84;21169;-87
2021/07/28 13:16:21;;;;;;;13.80;5.37;;;;;;;32.55;34.42;100019.31;1708444;84;21591;-90
2021/07/28 13:19:27;;;;;;;16.73;4.72;;;;;;;32.58;34.33;100021.25;1712066;84;21335;-81
2021/07/28 13:22:34;;;;;;;22.37;5.78;;;;;;;32.60;34.80;100012.66;1712128;84;21291;-77
2021/07/28 13:25:40;;;;;;;11.05;4.30;;;;;;;32.65;35.35;100006.84;1711800;84;21341;-77
2021/07/28 13:28:46;;;;;;;16.27;4.87;;;;;;;32.78;35.49;100007.86;1710959;84;21192;-89
2021/07/28 13:31:52;;;;;;;18.67;4.80;;;;;;;32.94;35.10;100012.50;1712064;84;21306;-89
2021/07/28 13:34:57;;;;;;;11.63;5.15;;;;;;;33.13;34.36;100012.98;1711829;84;21324;-77
2021/07/28 13:38:03;;;;;;;13.90;5.05;;;;;;;33.30;34.01;100008.70;1711683;84;21335;-89
2021/07/28 13:41:08;;;;;;;14.58;5.35;;;;;;;33.49;32.64;100004.69;1711610;84;21349;-77
2021/07/28 13:44:13;;;;;;;13.78;4.80;;;;;;;33.62;33.25;99999.41;1711654;84;21220;-89
2021/07/28 13:47:20;;;;;;;22.95;5.35;;;;;;;33.79;33.04;100000.78;1711725;84;21185;-89
2021/07/28 13:50:27;;;;;;;13.30;5.45;;;;;;;33.89;33.17;100004.42;1711956;84;21319;-90
2021/07/28 13:53:31;;;;;;;16.60;5.20;;;;;;;33.89;32.29;100000.99;1712043;84;21223;-77
2021/07/28 13:56:36;;;;;;;18.65;4.62;;;;;;;33.87;32.79;99989.13;1711259;84;21212;-89
2021/07/28 13:59:42;;;;;;;22.90;5.65;;;;;;;33.85;32.80;99989.25;1711777;84;21323;-90
2021/07/28 14:02:47;;;;;;;23.40;5.65;;;;;;;33.74;32.92;99988.20;1712105;84;21279;-90
2021/07/28 14:05:54;;;;;;;23.40;5.85;;;;;;;33.65;32.60;99985.16;1711639;84;21246;-89
2021/07/28 14:09:01;;;;;;;19.23;5.28;;;;;;;33.48;32.63;99980.36;1711098;84;21318;-88
2021/07/28 14:12:15;;;;;;;17.45;4.87;;;;;;;33.24;33.15;99980.30;1711054;84;21283;-89
2021/07/28 14:15:21;;;;;;;10.98;4.72;;;;;;;33.04;33.52;99973.33;1709859;84;21220;-77
2021/07/28 14:18:26;;;;;;;17.67;4.95;;;;;;;32.89;33.98;99970.98;1707491;84;21213;-76